createdAt,value
2023-05-15T00:00:52.284Z,100242.59
2023-05-15T00:03:19.294Z,100248.84
2023-05-15T00:05:46.308Z,100246.38
2023-05-15T00:08:13.200Z,100248.00
2023-05-15T00:10:44.917Z,100245.22
2023-05-15T00:13:19.030Z,100251.16
2023-05-15T00:15:45.983Z,100254.59
2023-05-15T00:18:12.983Z,100257.91
2023-05-15T00:20:39.982Z,100260.38
2023-05-15T00:23:06.831Z,100254.16
2023-05-15T00:25:33.766Z,100254.00
2023-05-15T00:28:00.561Z,100254.84
2023-05-15T00:30:28.101Z,100260.94
2023-05-15T00:32:55.013Z,100254.31
2023-05-15T00:35:22.156Z,100262.34
2023-05-15T00:37:49.024Z,100252.97
2023-05-15T00:40:22.438Z,100259.34
2023-05-15T00:42:51.235Z,100248.59
2023-05-15T00:45:19.529Z,100247.69
2023-05-15T00:47:46.608Z,100251.94
2023-05-15T00:50:13.759Z,100242.59
2023-05-15T00:52:40.626Z,100242.03
2023-05-15T00:55:08.016Z,100243.31
2023-05-15T00:57:35.055Z,100246.25
2023-05-15T01:00:06.337Z,100239.31
2023-05-15T01:02:33.402Z,100242.22
2023-05-15T01:05:00.795Z,100250.09
2023-05-15T01:07:31.430Z,100253.31
2023-05-15T01:09:59.788Z,100255.94
2023-05-15T01:12:30.381Z,100249.19
2023-05-15T01:14:57.693Z,100256.38
2023-05-15T01:17:24.591Z,100254.06
2023-05-15T01:19:52.765Z,100262.22
2023-05-15T01:22:59.312Z,100255.59
2023-05-15T01:26:09.872Z,100253.84
2023-05-15T01:28:43.588Z,100248.75
2023-05-15T01:31:19.497Z,100254.97
2023-05-15T01:33:51.260Z,100251.66
2023-05-15T01:36:43.935Z,100252.09
2023-05-15T01:39:13.006Z,100250.84
2023-05-15T01:41:52.444Z,100255.72
2023-05-15T01:44:26.574Z,100256.94
2023-05-15T01:46:58.716Z,100252.94
2023-05-15T01:49:28.202Z,100250.31
2023-05-15T01:52:27.862Z,100250.31
2023-05-15T01:54:55.519Z,100258.84
2023-05-15T01:57:23.401Z,100255.97
2023-05-15T01:59:51.464Z,100255.13
2023-05-15T02:02:19.701Z,100256.94
2023-05-15T02:04:47.691Z,100251.28
2023-05-15T02:07:16.213Z,100255.84
2023-05-15T02:09:44.272Z,100254.19
2023-05-15T02:12:11.839Z,100251.19
2023-05-15T02:14:41.176Z,100245.78
2023-05-15T02:17:08.408Z,100244.13
2023-05-15T02:19:35.741Z,100242.31
2023-05-15T02:22:02.678Z,100235.97
2023-05-15T02:24:29.499Z,100243.69
2023-05-15T02:27:20.542Z,100232.94
2023-05-15T02:30:02.300Z,100241.22
2023-05-15T02:33:01.535Z,100231.66
2023-05-15T02:35:57.363Z,100235.41
2023-05-15T02:38:39.431Z,100239.53
2023-05-15T02:41:07.729Z,100232.94
2023-05-15T02:43:37.304Z,100237.50
2023-05-15T02:46:05.211Z,100235.28
2023-05-15T02:48:32.486Z,100236.81
2023-05-15T02:50:59.788Z,100231.03
2023-05-15T02:53:26.720Z,100229.66
2023-05-15T02:55:53.575Z,100227.31
2023-05-15T02:58:20.424Z,100217.25
2023-05-15T03:00:47.427Z,100224.31
2023-05-15T03:03:14.373Z,100219.88
2023-05-15T03:05:41.233Z,100225.53
2023-05-15T03:08:08.162Z,100224.16
2023-05-15T03:10:35.052Z,100217.44
2023-05-15T03:13:02.670Z,100220.31
2023-05-15T03:15:29.539Z,100223.09
2023-05-15T03:17:56.508Z,100225.56
2023-05-15T03:20:23.440Z,100218.13
2023-05-15T03:22:50.427Z,100223.66
2023-05-15T03:25:17.597Z,100226.56
2023-05-15T03:27:44.450Z,100232.19
2023-05-15T03:30:11.435Z,100227.22
2023-05-15T03:32:41.532Z,100227.53
2023-05-15T03:35:11.121Z,100234.13
2023-05-15T03:37:37.956Z,100226.13
2023-05-15T03:40:10.684Z,100224.50
2023-05-15T03:42:37.792Z,100228.06
2023-05-15T03:45:05.538Z,100224.63
2023-05-15T03:47:39.894Z,100236.22
2023-05-15T03:50:07.306Z,100232.91
2023-05-15T03:52:37.792Z,100238.41
2023-05-15T03:55:08.154Z,100235.09
2023-05-15T03:57:38.501Z,100241.03
2023-05-15T04:00:10.274Z,100241.56
2023-05-15T04:02:38.068Z,100247.41
2023-05-15T04:05:05.860Z,100247.78
2023-05-15T04:07:37.493Z,100243.94
2023-05-15T04:10:04.954Z,100242.00
2023-05-15T04:12:34.568Z,100245.72
2023-05-15T04:15:21.689Z,100245.72
2023-05-15T04:17:53.722Z,100249.03
2023-05-15T04:20:24.986Z,100252.34
2023-05-15T04:22:52.874Z,100249.31
2023-05-15T04:25:20.284Z,100253.44
2023-05-15T04:27:47.533Z,100256.63
2023-05-15T04:30:14.631Z,100257.72
2023-05-15T04:32:41.600Z,100256.16
2023-05-15T04:35:11.557Z,100256.75
2023-05-15T04:37:39.823Z,100252.97
2023-05-15T04:40:08.240Z,100251.03
2023-05-15T04:42:37.136Z,100244.41
2023-05-15T04:45:06.421Z,100249.19
2023-05-15T04:47:33.450Z,100246.44
2023-05-15T04:50:00.306Z,100246.94
2023-05-15T04:52:27.126Z,100247.69
2023-05-15T04:54:55.690Z,100257.78
2023-05-15T04:57:23.009Z,100254.53
2023-05-15T04:59:50.055Z,100256.78
2023-05-15T05:02:21.383Z,100259.72
2023-05-15T05:04:48.412Z,100270.06
2023-05-15T05:07:15.669Z,100261.44
2023-05-15T05:09:42.814Z,100264.97
2023-05-15T05:12:09.980Z,100260.09
2023-05-15T05:14:37.340Z,100260.53
2023-05-15T05:17:04.578Z,100256.13
2023-05-15T05:19:31.501Z,100255.22
2023-05-15T05:22:01.351Z,100263.00
2023-05-15T05:24:28.539Z,100260.53
2023-05-15T05:26:58.075Z,100270.25
2023-05-15T05:29:26.065Z,100267.13
2023-05-15T05:31:53.651Z,100270.53
2023-05-15T05:34:20.765Z,100272.66
2023-05-15T05:36:47.818Z,100272.25
2023-05-15T05:39:16.828Z,100266.00
2023-05-15T05:41:44.237Z,100264.06
2023-05-15T05:44:11.485Z,100266.94
2023-05-15T05:46:38.354Z,100265.75
2023-05-15T05:49:05.431Z,100266.81
2023-05-15T05:51:32.420Z,100271.41
2023-05-15T05:53:59.340Z,100266.22
2023-05-15T05:56:26.571Z,100268.19
2023-05-15T05:58:53.957Z,100269.47
2023-05-15T06:01:21.357Z,100272.09
2023-05-15T06:03:48.384Z,100267.50
2023-05-15T06:06:15.476Z,100274.06
2023-05-15T06:08:42.286Z,100277.47
2023-05-15T06:11:09.163Z,100281.25
2023-05-15T06:13:36.009Z,100280.03
2023-05-15T06:16:02.955Z,100275.66
2023-05-15T06:18:29.998Z,100275.91
2023-05-15T06:21:00.198Z,100277.31
2023-05-15T06:23:27.699Z,100274.91
2023-05-15T06:25:54.625Z,100275.72
2023-05-15T06:28:21.598Z,100269.66
2023-05-15T06:30:48.624Z,100269.63
2023-05-15T06:33:15.944Z,100274.16
2023-05-15T06:35:48.951Z,100280.88
2023-05-15T06:38:15.842Z,100278.06
2023-05-15T06:40:42.673Z,100281.44
2023-05-15T06:43:09.473Z,100281.56
2023-05-15T06:45:36.511Z,100283.00
2023-05-15T06:48:03.629Z,100276.81
2023-05-15T06:50:30.584Z,100278.34
2023-05-15T06:52:58.746Z,100279.47
2023-05-15T06:55:25.753Z,100277.50
2023-05-15T06:57:52.850Z,100279.75
2023-05-15T07:00:19.940Z,100272.16
2023-05-15T07:02:47.028Z,100275.41
2023-05-15T07:05:15.045Z,100279.53
2023-05-15T07:07:42.700Z,100282.22
2023-05-15T07:10:09.778Z,100286.72
2023-05-15T07:12:36.812Z,100285.66
2023-05-15T07:15:05.016Z,100278.00
2023-05-15T07:17:33.681Z,100281.69
2023-05-15T07:20:00.650Z,100290.69
2023-05-15T07:22:29.015Z,100279.19
2023-05-15T07:24:55.945Z,100279.16
2023-05-15T07:27:23.114Z,100275.47
2023-05-15T07:29:50.099Z,100286.16
2023-05-15T07:32:16.955Z,100288.22
2023-05-15T07:34:43.997Z,100278.50
2023-05-15T07:37:10.921Z,100278.75
2023-05-15T07:39:37.929Z,100276.25
2023-05-15T07:42:05.090Z,100279.44
2023-05-15T07:44:32.104Z,100271.53
2023-05-15T07:46:59.405Z,100270.13
2023-05-15T07:49:26.324Z,100267.88
2023-05-15T07:51:53.400Z,100260.91
2023-05-15T07:54:20.750Z,100262.19
2023-05-15T07:56:47.631Z,100261.13
2023-05-15T07:59:14.549Z,100267.09
2023-05-15T08:01:41.482Z,100274.44
2023-05-15T08:04:09.632Z,100269.31
2023-05-15T08:06:39.908Z,100271.91
2023-05-15T08:09:06.802Z,100270.94
2023-05-15T08:11:33.827Z,100259.63
2023-05-15T08:14:00.838Z,100256.69
2023-05-15T08:16:27.846Z,100260.41
2023-05-15T08:18:58.718Z,100268.53
2023-05-15T08:21:25.779Z,100260.44
2023-05-15T08:23:54.650Z,100268.00
2023-05-15T08:26:21.694Z,100265.22
2023-05-15T08:28:48.586Z,100264.75
2023-05-15T08:31:16.044Z,100256.53
2023-05-15T08:33:43.067Z,100258.09
2023-05-15T08:36:10.119Z,100256.56
2023-05-15T08:38:36.950Z,100259.13
2023-05-15T08:41:12.678Z,100264.00
2023-05-15T08:43:41.387Z,100264.22
2023-05-15T08:46:08.628Z,100256.53
2023-05-15T08:48:38.404Z,100267.41
2023-05-15T08:51:09.362Z,100255.06
2023-05-15T08:53:36.822Z,100261.09
2023-05-15T08:56:04.400Z,100254.63
2023-05-15T08:58:32.310Z,100250.53
2023-05-15T09:00:59.967Z,100253.81
2023-05-15T09:03:27.033Z,100247.47
2023-05-15T09:05:55.141Z,100243.03
2023-05-15T09:08:23.878Z,100246.75
2023-05-15T09:10:53.996Z,100244.53
2023-05-15T09:13:20.886Z,100240.03
2023-05-15T09:15:48.202Z,100238.53
2023-05-15T09:18:16.518Z,100236.41
2023-05-15T09:20:43.547Z,100249.41
2023-05-15T09:23:27.130Z,100242.50
2023-05-15T09:25:56.547Z,100242.53
2023-05-15T09:28:32.336Z,100235.94
2023-05-15T09:31:04.225Z,100230.06
2023-05-15T09:33:39.580Z,100230.88
2023-05-15T09:36:08.255Z,100231.72
2023-05-15T09:38:42.958Z,100226.00
2023-05-15T09:41:10.259Z,100222.63
2023-05-15T09:43:39.209Z,100215.94
2023-05-15T09:46:08.147Z,100220.31
2023-05-15T09:48:35.675Z,100221.28
2023-05-15T09:51:02.712Z,100216.25
2023-05-15T09:53:30.471Z,100215.81
2023-05-15T09:56:00.260Z,100212.34
2023-05-15T09:58:27.070Z,100208.78
2023-05-15T10:00:53.960Z,100202.31
2023-05-15T10:03:23.440Z,100203.72
2023-05-15T10:05:50.719Z,100202.06
2023-05-15T10:08:28.381Z,100196.16
2023-05-15T10:10:59.728Z,100190.09
2023-05-15T10:13:28.136Z,100189.03
2023-05-15T10:15:56.152Z,100189.66
2023-05-15T10:18:26.183Z,100186.16
2023-05-15T10:20:53.087Z,100178.13
2023-05-15T10:23:22.397Z,100172.47
2023-05-15T10:26:08.725Z,100175.16
2023-05-15T10:28:37.624Z,100173.66
2023-05-15T10:31:05.989Z,100156.00
2023-05-15T10:33:35.291Z,100157.16
2023-05-15T10:36:03.626Z,100154.00
2023-05-15T10:38:31.629Z,100154.50
2023-05-15T10:41:13.081Z,100148.69
2023-05-15T10:43:44.167Z,100152.50
2023-05-15T10:46:11.621Z,100142.00
2023-05-15T10:48:39.429Z,100151.19
2023-05-15T10:51:14.966Z,100145.03
2023-05-15T10:53:43.101Z,100142.03
2023-05-15T10:56:17.100Z,100135.19
2023-05-15T10:58:52.037Z,100125.09
2023-05-15T11:01:29.678Z,100125.47
2023-05-15T11:04:16.787Z,100132.88
2023-05-15T11:06:46.701Z,100111.88
2023-05-15T11:09:22.835Z,100105.09
2023-05-15T11:11:52.746Z,100115.75
2023-05-15T11:14:20.204Z,100105.72
2023-05-15T11:16:52.947Z,100111.34
2023-05-15T11:19:29.107Z,100107.69
2023-05-15T11:22:08.969Z,100107.91
2023-05-15T11:25:14.266Z,100107.53
2023-05-15T11:27:46.200Z,100096.09
2023-05-15T11:30:13.588Z,100097.97
2023-05-15T11:33:08.483Z,100095.94
2023-05-15T11:35:46.631Z,100086.13
2023-05-15T11:38:20.092Z,100091.63
2023-05-15T11:40:56.502Z,100094.06
2023-05-15T11:43:28.930Z,100094.94
2023-05-15T11:46:02.971Z,100090.84
2023-05-15T11:48:42.080Z,100103.53
2023-05-15T11:51:25.003Z,100103.75
2023-05-15T11:53:55.252Z,100094.53
2023-05-15T11:56:29.894Z,100107.63
2023-05-15T11:59:02.188Z,100097.97
2023-05-15T12:01:43.866Z,100093.47
2023-05-15T12:04:15.928Z,100091.59
2023-05-15T12:06:49.340Z,100088.28
2023-05-15T12:09:19.674Z,100084.81
2023-05-15T12:11:55.434Z,100096.50
2023-05-15T12:14:31.688Z,100098.97
2023-05-15T12:17:04.934Z,100090.97
2023-05-15T12:19:34.118Z,100096.13
2023-05-15T12:22:01.043Z,100099.81
2023-05-15T12:24:27.928Z,100094.53
2023-05-15T12:26:57.357Z,100091.03
2023-05-15T12:29:26.535Z,100099.22
2023-05-15T12:31:54.212Z,100096.56
2023-05-15T12:34:21.850Z,100093.06
2023-05-15T12:36:48.960Z,100094.09
2023-05-15T12:39:15.790Z,100091.84
2023-05-15T12:41:44.005Z,100092.03
2023-05-15T12:44:20.418Z,100076.03
2023-05-15T12:46:47.982Z,100094.50
2023-05-15T12:49:22.953Z,100088.56
2023-05-15T12:51:50.185Z,100088.16
2023-05-15T12:54:18.926Z,100082.59
2023-05-15T12:56:47.917Z,100077.91
2023-05-15T12:59:14.845Z,100076.69
2023-05-15T13:01:42.573Z,100080.16
2023-05-15T13:04:10.350Z,100065.38
2023-05-15T13:06:46.298Z,100056.75
2023-05-15T13:09:14.414Z,100060.78
2023-05-15T13:11:45.212Z,100066.94
2023-05-15T13:14:17.152Z,100061.88
2023-05-15T13:16:47.010Z,100053.28
2023-05-15T13:19:14.088Z,100047.13
2023-05-15T13:21:41.014Z,100056.38
2023-05-15T13:24:09.962Z,100049.44
2023-05-15T13:26:36.851Z,100060.72
2023-05-15T13:29:03.792Z,100063.56
2023-05-15T13:31:30.799Z,100054.38
2023-05-15T13:33:57.689Z,100053.53
2023-05-15T13:36:24.725Z,100054.38
2023-05-15T13:38:51.635Z,100041.66
2023-05-15T13:41:18.555Z,100044.97
2023-05-15T13:43:47.770Z,100038.41
2023-05-15T13:46:14.856Z,100042.50
2023-05-15T13:48:41.746Z,100047.38
2023-05-15T13:51:08.807Z,100042.69
2023-05-15T13:53:35.969Z,100040.25
2023-05-15T13:56:03.379Z,100052.53
2023-05-15T13:58:30.514Z,100043.53
2023-05-15T14:00:57.559Z,100052.75
2023-05-15T14:03:24.660Z,100041.28
2023-05-15T14:05:51.879Z,100041.28
2023-05-15T14:08:18.753Z,100039.63
2023-05-15T14:10:45.655Z,100042.50
2023-05-15T14:13:12.471Z,100044.75
2023-05-15T14:15:39.346Z,100041.88
2023-05-15T14:18:06.400Z,100047.81
2023-05-15T14:20:33.280Z,100043.09
2023-05-15T14:23:00.347Z,100049.47
2023-05-15T14:25:27.209Z,100046.38
2023-05-15T14:27:54.048Z,100049.88
2023-05-15T14:30:23.038Z,100043.50
2023-05-15T14:32:50.074Z,100043.50
2023-05-15T14:35:16.926Z,100041.44
2023-05-15T14:37:43.876Z,100033.50
2023-05-15T14:40:11.475Z,100033.06
2023-05-15T14:42:38.351Z,100028.97
2023-05-15T14:45:05.732Z,100022.44
2023-05-15T14:47:33.701Z,100024.91
2023-05-15T14:50:00.610Z,100021.63
2023-05-15T14:52:27.481Z,100022.03
2023-05-15T14:55:07.873Z,100022.03
2023-05-15T14:57:35.361Z,100024.47
2023-05-15T15:00:02.391Z,100029.19
2023-05-15T15:02:29.404Z,100032.06
2023-05-15T15:04:57.513Z,100027.97
2023-05-15T15:07:29.960Z,100042.09
2023-05-15T15:09:56.805Z,100049.84
2023-05-15T15:12:23.683Z,100049.81
2023-05-15T15:14:50.564Z,100056.38
2023-05-15T15:17:18.374Z,100055.16
2023-05-15T15:19:45.323Z,100067.41
2023-05-15T15:22:15.429Z,100073.28
2023-05-15T15:24:42.281Z,100070.19
2023-05-15T15:27:09.179Z,100067.28
2023-05-15T15:29:39.107Z,100076.63
2023-05-15T15:32:09.115Z,100072.97
2023-05-15T15:34:36.045Z,100071.97
2023-05-15T15:37:03.059Z,100069.69
2023-05-15T15:39:30.045Z,100071.09
2023-05-15T15:41:57.132Z,100078.22
2023-05-15T15:44:24.408Z,100078.78
2023-05-15T15:46:51.263Z,100083.03
2023-05-15T15:49:20.549Z,100088.66
2023-05-15T15:51:47.545Z,100085.38
2023-05-15T15:54:19.845Z,100081.31
2023-05-15T15:56:48.163Z,100074.72
2023-05-15T15:59:15.644Z,100083.09
2023-05-15T16:01:42.729Z,100086.09
2023-05-15T16:04:10.988Z,100086.19
2023-05-15T16:06:41.355Z,100088.78
2023-05-15T16:09:08.234Z,100093.25
2023-05-15T16:11:38.188Z,100096.28
2023-05-15T16:14:08.225Z,100095.91
2023-05-15T16:16:38.119Z,100105.28
2023-05-15T16:19:10.311Z,100095.94
2023-05-15T16:21:40.153Z,100109.84
2023-05-15T16:24:10.244Z,100102.63
2023-05-15T16:26:40.316Z,100113.16
2023-05-15T16:29:10.324Z,100107.66
2023-05-15T16:31:38.269Z,100115.19
2023-05-15T16:34:05.670Z,100120.59
2023-05-15T16:36:32.617Z,100110.09
2023-05-15T16:39:01.674Z,100117.41
2023-05-15T16:41:28.908Z,100120.63
2023-05-15T16:43:55.773Z,100123.03
2023-05-15T16:46:22.746Z,100126.44
2023-05-15T16:48:49.844Z,100136.59
2023-05-15T16:51:16.792Z,100138.34
2023-05-15T16:53:44.340Z,100139.38
2023-05-15T16:56:13.666Z,100131.59
2023-05-15T16:58:42.288Z,100132.25
2023-05-15T17:01:09.132Z,100131.22
2023-05-15T17:03:36.343Z,100127.94
2023-05-15T17:06:03.573Z,100131.59
2023-05-15T17:08:30.431Z,100135.44
2023-05-15T17:10:57.251Z,100139.38
2023-05-15T17:13:25.505Z,100132.25
2023-05-15T17:15:54.108Z,100136.78
2023-05-15T17:18:21.978Z,100135.41
2023-05-15T17:20:48.837Z,100138.13
2023-05-15T17:23:15.776Z,100132.91
2023-05-15T17:25:42.590Z,100141.84
2023-05-15T17:28:09.391Z,100143.66
2023-05-15T17:30:36.359Z,100141.84
2023-05-15T17:33:03.431Z,100152.84
2023-05-15T17:35:32.788Z,100150.00
2023-05-15T17:38:00.082Z,100150.34
2023-05-15T17:40:27.011Z,100153.84
2023-05-15T17:42:53.904Z,100163.19
2023-05-15T17:45:20.924Z,100167.47
2023-05-15T17:47:49.141Z,100163.53
2023-05-15T17:50:16.152Z,100168.06
2023-05-15T17:52:43.012Z,100164.38
2023-05-15T17:55:10.069Z,100168.22
2023-05-15T17:57:36.970Z,100168.97
2023-05-15T18:00:05.722Z,100172.44
2023-05-15T18:02:32.596Z,100170.34
2023-05-15T18:04:59.517Z,100177.59
2023-05-15T18:07:26.409Z,100175.88
2023-05-15T18:09:53.270Z,100176.59
2023-05-15T18:12:20.199Z,100184.28
2023-05-15T18:14:47.024Z,100184.84
2023-05-15T18:17:13.984Z,100181.09
2023-05-15T18:19:44.631Z,100188.78
2023-05-15T18:22:11.824Z,100190.78
2023-05-15T18:24:38.622Z,100192.81
2023-05-15T18:27:05.751Z,100198.66
2023-05-15T18:29:32.602Z,100203.06
2023-05-15T18:31:59.635Z,100209.75
2023-05-15T18:34:26.526Z,100204.00
2023-05-15T18:36:53.365Z,100215.78
2023-05-15T18:39:20.572Z,100216.94
2023-05-15T18:41:47.442Z,100219.94
2023-05-15T18:44:14.350Z,100220.34
2023-05-15T18:46:41.355Z,100224.50
2023-05-15T18:49:08.324Z,100224.88
2023-05-15T18:51:35.669Z,100235.03
2023-05-15T18:54:02.583Z,100238.84
2023-05-15T18:56:30.643Z,100248.59
2023-05-15T18:58:57.476Z,100262.72
2023-05-15T19:01:24.454Z,100262.41
2023-05-15T19:03:51.496Z,100249.63
2023-05-15T19:06:20.148Z,100237.00
2023-05-15T19:08:48.176Z,100261.53
2023-05-15T19:11:15.638Z,100278.16
2023-05-15T19:13:42.581Z,100284.19
2023-05-15T19:16:10.266Z,100281.91
2023-05-15T19:18:37.177Z,100280.59
2023-05-15T19:21:04.866Z,100291.34
2023-05-15T19:23:31.816Z,100291.19
2023-05-15T19:25:58.683Z,100293.69
2023-05-15T19:28:25.689Z,100295.34
2023-05-15T19:30:52.585Z,100301.09
2023-05-15T19:33:20.496Z,100306.88
2023-05-15T19:35:48.900Z,100297.91
2023-05-15T19:38:15.949Z,100297.22
2023-05-15T19:40:45.248Z,100303.28
2023-05-15T19:43:14.117Z,100307.72
2023-05-15T19:45:44.063Z,100308.66
2023-05-15T19:48:11.033Z,100307.19
2023-05-15T19:50:41.138Z,100304.56
2023-05-15T19:53:08.237Z,100302.91
2023-05-15T19:55:35.251Z,100304.88
2023-05-15T19:58:02.066Z,100307.81
2023-05-15T20:00:28.969Z,100305.19
2023-05-15T20:02:56.051Z,100307.16
2023-05-15T20:05:22.987Z,100311.63
2023-05-15T20:07:50.011Z,100304.31
2023-05-15T20:10:18.932Z,100308.44
2023-05-15T20:12:46.778Z,100303.44
2023-05-15T20:15:15.095Z,100303.09
2023-05-15T20:17:43.080Z,100290.88
2023-05-15T20:20:12.010Z,100298.63
2023-05-15T20:22:44.025Z,100307.72
2023-05-15T20:25:11.354Z,100319.97
2023-05-15T20:27:38.206Z,100313.88
2023-05-15T20:30:06.186Z,100310.94
2023-05-15T20:32:33.236Z,100316.56
2023-05-15T20:35:00.476Z,100320.38
2023-05-15T20:37:27.887Z,100320.03
2023-05-15T20:39:54.992Z,100324.00
2023-05-15T20:42:22.566Z,100316.56
2023-05-15T20:44:50.884Z,100312.31
2023-05-15T20:47:17.794Z,100316.44
2023-05-15T20:49:44.665Z,100321.03
2023-05-15T20:52:11.920Z,100310.97
2023-05-15T20:54:38.764Z,100319.34
2023-05-15T20:57:06.080Z,100326.91
2023-05-15T20:59:33.825Z,100321.13
2023-05-15T21:02:00.750Z,100336.28
2023-05-15T21:04:30.986Z,100334.41
2023-05-15T21:06:57.898Z,100337.72
2023-05-15T21:09:25.078Z,100338.72
2023-05-15T21:11:51.925Z,100339.00
2023-05-15T21:14:18.804Z,100340.84
2023-05-15T21:16:45.761Z,100342.31
2023-05-15T21:19:12.783Z,100347.59
2023-05-15T21:21:39.806Z,100350.09
2023-05-15T21:24:07.121Z,100338.72
2023-05-15T21:26:34.040Z,100345.63
2023-05-15T21:29:01.316Z,100350.22
2023-05-15T21:31:28.346Z,100346.78
2023-05-15T21:33:55.356Z,100344.28
2023-05-15T21:36:22.771Z,100343.63
2023-05-15T21:38:49.733Z,100355.00
2023-05-15T21:41:16.652Z,100353.47
2023-05-15T21:43:43.594Z,100347.25
2023-05-15T21:46:10.699Z,100347.53
2023-05-15T21:48:37.526Z,100356.59
2023-05-15T21:51:04.419Z,100355.91
2023-05-15T21:53:31.352Z,100359.69
2023-05-15T21:56:02.097Z,100351.94
2023-05-15T21:58:29.139Z,100348.63
2023-05-15T22:00:56.123Z,100345.34
2023-05-15T22:03:23.334Z,100345.66
2023-05-15T22:05:52.718Z,100352.06
2023-05-15T22:08:20.265Z,100352.34
2023-05-15T22:10:50.519Z,100353.44
2023-05-15T22:13:17.565Z,100359.84
2023-05-15T22:15:44.586Z,100364.31
2023-05-15T22:18:12.735Z,100361.75
2023-05-15T22:20:39.553Z,100365.41
2023-05-15T22:23:07.513Z,100364.19
2023-05-15T22:25:34.401Z,100370.72
2023-05-15T22:28:01.289Z,100369.91
2023-05-15T22:30:28.369Z,100368.09
2023-05-15T22:32:55.575Z,100367.25
2023-05-15T22:35:22.403Z,100373.81
2023-05-15T22:37:49.373Z,100373.16
2023-05-15T22:40:16.338Z,100378.72
2023-05-15T22:42:43.211Z,100383.16
2023-05-15T22:45:10.555Z,100378.19
2023-05-15T22:47:37.662Z,100380.31
2023-05-15T22:50:05.232Z,100374.66
2023-05-15T22:52:32.139Z,100386.34
2023-05-15T22:54:59.226Z,100380.53
2023-05-15T22:57:26.762Z,100377.38
2023-05-15T22:59:53.561Z,100375.19
2023-05-15T23:02:20.502Z,100383.53
2023-05-15T23:04:47.438Z,100381.19
2023-05-15T23:07:14.434Z,100379.03
2023-05-15T23:09:41.856Z,100383.22
2023-05-15T23:12:08.723Z,100381.44
2023-05-15T23:14:35.573Z,100379.94
2023-05-15T23:17:03.566Z,100380.22
2023-05-15T23:19:30.405Z,100376.53
2023-05-15T23:21:57.356Z,100375.88
2023-05-15T23:24:24.180Z,100373.13
2023-05-15T23:26:51.043Z,100373.69
2023-05-15T23:29:17.868Z,100373.84
2023-05-15T23:31:45.025Z,100369.13
2023-05-15T23:34:11.969Z,100372.75
2023-05-15T23:36:38.861Z,100375.38
2023-05-15T23:39:05.871Z,100379.81
2023-05-15T23:41:32.789Z,100384.06
2023-05-15T23:43:59.639Z,100392.09
2023-05-15T23:46:26.556Z,100393.06
2023-05-15T23:48:53.446Z,100380.66
2023-05-15T23:51:20.548Z,100392.81
2023-05-15T23:53:47.418Z,100393.63
2023-05-15T23:56:14.353Z,100396.41
2023-05-15T23:58:41.605Z,100390.31
